sensor_id;sensor_type;location;lat;lon;timestamp;temperature;humidity
64874;HTU21D;51367;45.204;38.576;2023-09-18T00:00:07;13.89;64.17
64874;HTU21D;51367;45.204;38.576;2023-09-18T00:02:38;13.84;64.18
64874;HTU21D;51367;45.204;38.576;2023-09-18T00:05:05;13.82;64.14
64874;HTU21D;51367;45.204;38.576;2023-09-18T00:07:31;13.80;64.34
64874;HTU21D;51367;45.204;38.576;2023-09-18T00:09:57;13.79;64.16
64874;HTU21D;51367;45.204;38.576;2023-09-18T00:12:22;13.77;64.18
64874;HTU21D;51367;45.204;38.576;2023-09-18T00:14:49;13.77;64.24
64874;HTU21D;51367;45.204;38.576;2023-09-18T00:17:15;13.75;64.24
64874;HTU21D;51367;45.204;38.576;2023-09-18T00:19:43;13.71;64.35
64874;HTU21D;51367;45.204;38.576;2023-09-18T00:22:09;13.70;64.59
64874;HTU21D;51367;45.204;38.576;2023-09-18T00:24:34;13.70;64.55
64874;HTU21D;51367;45.204;38.576;2023-09-18T00:27:00;13.68;64.68
64874;HTU21D;51367;45.204;38.576;2023-09-18T00:29:26;13.66;64.72
64874;HTU21D;51367;45.204;38.576;2023-09-18T00:31:52;13.65;64.69
64874;HTU21D;51367;45.204;38.576;2023-09-18T00:34:18;13.62;64.85
64874;HTU21D;51367;45.204;38.576;2023-09-18T00:36:44;13.62;65.01
64874;HTU21D;51367;45.204;38.576;2023-09-18T00:39:10;13.62;64.89
64874;HTU21D;51367;45.204;38.576;2023-09-18T00:41:36;13.61;65.01
64874;HTU21D;51367;45.204;38.576;2023-09-18T00:44:02;13.61;64.92
64874;HTU21D;51367;45.204;38.576;2023-09-18T00:46:28;13.60;64.95
64874;HTU21D;51367;45.204;38.576;2023-09-18T00:48:54;13.59;65.04
64874;HTU21D;51367;45.204;38.576;2023-09-18T00:51:20;13.58;65.06
64874;HTU21D;51367;45.204;38.576;2023-09-18T00:53:47;13.58;65.37
64874;HTU21D;51367;45.204;38.576;2023-09-18T00:56:15;13.56;65.31
64874;HTU21D;51367;45.204;38.576;2023-09-18T00:58:42;13.53;65.40
64874;HTU21D;51367;45.204;38.576;2023-09-18T01:01:10;13.52;65.36
64874;HTU21D;51367;45.204;38.576;2023-09-18T01:03:36;13.50;65.30
64874;HTU21D;51367;45.204;38.576;2023-09-18T01:06:02;13.49;65.29
64874;HTU21D;51367;45.204;38.576;2023-09-18T01:08:29;13.47;65.37
64874;HTU21D;51367;45.204;38.576;2023-09-18T01:14:37;13.39;66.31
64874;HTU21D;51367;45.204;38.576;2023-09-18T01:17:04;13.35;66.18
64874;HTU21D;51367;45.204;38.576;2023-09-18T01:19:46;13.35;65.98
64874;HTU21D;51367;45.204;38.576;2023-09-18T01:22:14;13.32;65.84
64874;HTU21D;51367;45.204;38.576;2023-09-18T01:24:41;13.29;65.91
64874;HTU21D;51367;45.204;38.576;2023-09-18T01:27:11;13.26;65.72
64874;HTU21D;51367;45.204;38.576;2023-09-18T01:29:46;13.25;65.79
64874;HTU21D;51367;45.204;38.576;2023-09-18T01:32:13;13.23;65.95
64874;HTU21D;51367;45.204;38.576;2023-09-18T01:34:47;13.21;65.88
64874;HTU21D;51367;45.204;38.576;2023-09-18T01:37:17;13.19;65.91
64874;HTU21D;51367;45.204;38.576;2023-09-18T01:39:46;13.18;65.88
64874;HTU21D;51367;45.204;38.576;2023-09-18T01:42:12;13.17;65.94
64874;HTU21D;51367;45.204;38.576;2023-09-18T01:44:39;13.14;66.02
64874;HTU21D;51367;45.204;38.576;2023-09-18T01:47:14;13.11;66.08
64874;HTU21D;51367;45.204;38.576;2023-09-18T01:49:40;13.09;66.00
64874;HTU21D;51367;45.204;38.576;2023-09-18T01:52:08;13.08;66.04
64874;HTU21D;51367;45.204;38.576;2023-09-18T01:54:36;13.04;66.25
64874;HTU21D;51367;45.204;38.576;2023-09-18T01:57:03;13.02;66.32
64874;HTU21D;51367;45.204;38.576;2023-09-18T01:59:29;12.97;66.33
64874;HTU21D;51367;45.204;38.576;2023-09-18T02:01:55;12.94;66.37
64874;HTU21D;51367;45.204;38.576;2023-09-18T02:04:21;12.91;66.37
64874;HTU21D;51367;45.204;38.576;2023-09-18T02:06:48;12.88;66.45
64874;HTU21D;51367;45.204;38.576;2023-09-18T02:09:15;12.85;66.43
64874;HTU21D;51367;45.204;38.576;2023-09-18T02:11:43;12.79;66.53
64874;HTU21D;51367;45.204;38.576;2023-09-18T02:14:10;12.77;66.71
64874;HTU21D;51367;45.204;38.576;2023-09-18T02:16:41;12.70;66.72
64874;HTU21D;51367;45.204;38.576;2023-09-18T02:19:08;12.66;66.72
64874;HTU21D;51367;45.204;38.576;2023-09-18T02:21:34;12.63;66.75
64874;HTU21D;51367;45.204;38.576;2023-09-18T02:24:00;12.60;66.78
64874;HTU21D;51367;45.204;38.576;2023-09-18T02:26:27;12.57;66.91
64874;HTU21D;51367;45.204;38.576;2023-09-18T02:28:54;12.53;66.88
64874;HTU21D;51367;45.204;38.576;2023-09-18T02:31:21;12.50;67.03
64874;HTU21D;51367;45.204;38.576;2023-09-18T02:33:48;12.47;67.13
64874;HTU21D;51367;45.204;38.576;2023-09-18T02:36:15;12.46;67.13
64874;HTU21D;51367;45.204;38.576;2023-09-18T02:38:41;12.43;67.07
64874;HTU21D;51367;45.204;38.576;2023-09-18T02:41:07;12.41;67.14
64874;HTU21D;51367;45.204;38.576;2023-09-18T02:43:33;12.36;67.22
64874;HTU21D;51367;45.204;38.576;2023-09-18T02:45:59;12.37;67.21
64874;HTU21D;51367;45.204;38.576;2023-09-18T02:48:25;12.34;67.25
64874;HTU21D;51367;45.204;38.576;2023-09-18T02:50:51;12.31;67.28
64874;HTU21D;51367;45.204;38.576;2023-09-18T02:53:20;12.31;67.32
64874;HTU21D;51367;45.204;38.576;2023-09-18T02:55:53;12.29;67.40
64874;HTU21D;51367;45.204;38.576;2023-09-18T02:58:20;12.27;67.39
64874;HTU21D;51367;45.204;38.576;2023-09-18T03:00:48;12.23;67.43
64874;HTU21D;51367;45.204;38.576;2023-09-18T03:03:16;12.22;67.45
64874;HTU21D;51367;45.204;38.576;2023-09-18T03:05:43;12.21;67.47
64874;HTU21D;51367;45.204;38.576;2023-09-18T03:08:12;12.19;67.50
64874;HTU21D;51367;45.204;38.576;2023-09-18T03:10:39;12.19;67.52
64874;HTU21D;51367;45.204;38.576;2023-09-18T03:13:07;12.17;67.56
64874;HTU21D;51367;45.204;38.576;2023-09-18T03:15:34;12.14;67.60
64874;HTU21D;51367;45.204;38.576;2023-09-18T03:18:01;12.14;67.63
64874;HTU21D;51367;45.204;38.576;2023-09-18T03:20:28;12.11;67.71
64874;HTU21D;51367;45.204;38.576;2023-09-18T03:22:57;12.10;67.78
64874;HTU21D;51367;45.204;38.576;2023-09-18T03:25:24;12.10;67.81
64874;HTU21D;51367;45.204;38.576;2023-09-18T03:27:56;12.11;67.86
64874;HTU21D;51367;45.204;38.576;2023-09-18T03:30:26;12.12;67.86
64874;HTU21D;51367;45.204;38.576;2023-09-18T03:32:52;12.16;67.86
64874;HTU21D;51367;45.204;38.576;2023-09-18T03:35:20;12.19;67.85
64874;HTU21D;51367;45.204;38.576;2023-09-18T03:37:49;12.22;67.84
64874;HTU21D;51367;45.204;38.576;2023-09-18T03:40:19;12.28;67.87
64874;HTU21D;51367;45.204;38.576;2023-09-18T03:42:45;12.32;67.84
64874;HTU21D;51367;45.204;38.576;2023-09-18T03:45:12;12.37;67.84
64874;HTU21D;51367;45.204;38.576;2023-09-18T03:47:39;12.43;67.89
64874;HTU21D;51367;45.204;38.576;2023-09-18T03:50:09;12.49;67.90
64874;HTU21D;51367;45.204;38.576;2023-09-18T03:52:36;12.56;67.91
64874;HTU21D;51367;45.204;38.576;2023-09-18T03:55:02;12.62;67.89
64874;HTU21D;51367;45.204;38.576;2023-09-18T03:57:28;12.70;67.90
64874;HTU21D;51367;45.204;38.576;2023-09-18T03:59:54;12.78;67.87
64874;HTU21D;51367;45.204;38.576;2023-09-18T04:02:23;12.87;67.92
64874;HTU21D;51367;45.204;38.576;2023-09-18T04:04:50;12.97;67.87
64874;HTU21D;51367;45.204;38.576;2023-09-18T04:07:16;13.07;67.95
64874;HTU21D;51367;45.204;38.576;2023-09-18T04:09:42;13.19;67.94
64874;HTU21D;51367;45.204;38.576;2023-09-18T04:12:08;13.32;68.17
64874;HTU21D;51367;45.204;38.576;2023-09-18T04:14:35;13.59;68.47
64874;HTU21D;51367;45.204;38.576;2023-09-18T04:17:01;14.01;68.26
64874;HTU21D;51367;45.204;38.576;2023-09-18T04:19:27;14.40;67.83
64874;HTU21D;51367;45.204;38.576;2023-09-18T04:21:54;14.72;67.35
64874;HTU21D;51367;45.204;38.576;2023-09-18T04:24:20;14.98;66.98
64874;HTU21D;51367;45.204;38.576;2023-09-18T04:26:46;15.22;66.64
64874;HTU21D;51367;45.204;38.576;2023-09-18T04:29:13;15.42;66.34
64874;HTU21D;51367;45.204;38.576;2023-09-18T04:31:39;15.57;66.43
64874;HTU21D;51367;45.204;38.576;2023-09-18T04:34:05;15.73;66.51
64874;HTU21D;51367;45.204;38.576;2023-09-18T04:36:31;15.86;66.43
64874;HTU21D;51367;45.204;38.576;2023-09-18T04:38:57;16.02;66.45
64874;HTU21D;51367;45.204;38.576;2023-09-18T04:41:23;16.21;66.40
64874;HTU21D;51367;45.204;38.576;2023-09-18T04:43:52;16.44;66.08
64874;HTU21D;51367;45.204;38.576;2023-09-18T04:46:18;16.60;65.81
64874;HTU21D;51367;45.204;38.576;2023-09-18T04:48:44;16.75;65.66
64874;HTU21D;51367;45.204;38.576;2023-09-18T04:51:10;16.95;65.59
64874;HTU21D;51367;45.204;38.576;2023-09-18T04:53:38;17.09;65.50
64874;HTU21D;51367;45.204;38.576;2023-09-18T04:56:04;17.25;65.59
64874;HTU21D;51367;45.204;38.576;2023-09-18T04:58:31;17.39;65.62
64874;HTU21D;51367;45.204;38.576;2023-09-18T05:00:59;17.58;65.47
64874;HTU21D;51367;45.204;38.576;2023-09-18T05:03:26;17.74;65.33
64874;HTU21D;51367;45.204;38.576;2023-09-18T05:05:53;17.93;65.08
64874;HTU21D;51367;45.204;38.576;2023-09-18T05:08:18;18.11;64.66
64874;HTU21D;51367;45.204;38.576;2023-09-18T05:10:45;18.24;64.25
64874;HTU21D;51367;45.204;38.576;2023-09-18T05:13:12;18.30;64.03
64874;HTU21D;51367;45.204;38.576;2023-09-18T05:15:38;18.41;63.99
64874;HTU21D;51367;45.204;38.576;2023-09-18T05:18:04;18.53;63.77
64874;HTU21D;51367;45.204;38.576;2023-09-18T05:20:31;18.61;63.63
64874;HTU21D;51367;45.204;38.576;2023-09-18T05:22:58;18.71;63.60
64874;HTU21D;51367;45.204;38.576;2023-09-18T05:25:26;18.84;63.48
64874;HTU21D;51367;45.204;38.576;2023-09-18T05:27:53;18.98;63.24
64874;HTU21D;51367;45.204;38.576;2023-09-18T05:30:33;19.11;63.15
64874;HTU21D;51367;45.204;38.576;2023-09-18T05:33:05;19.26;63.01
64874;HTU21D;51367;45.204;38.576;2023-09-18T05:35:39;19.39;62.93
64874;HTU21D;51367;45.204;38.576;2023-09-18T05:38:06;19.51;62.82
64874;HTU21D;51367;45.204;38.576;2023-09-18T05:40:32;19.61;62.71
64874;HTU21D;51367;45.204;38.576;2023-09-18T05:42:58;19.67;62.64
64874;HTU21D;51367;45.204;38.576;2023-09-18T05:45:24;19.72;62.79
64874;HTU21D;51367;45.204;38.576;2023-09-18T05:47:52;19.81;62.75
64874;HTU21D;51367;45.204;38.576;2023-09-18T05:50:19;19.89;62.47
64874;HTU21D;51367;45.204;38.576;2023-09-18T05:52:46;20.03;62.37
64874;HTU21D;51367;45.204;38.576;2023-09-18T05:55:14;20.16;62.07
64874;HTU21D;51367;45.204;38.576;2023-09-18T05:57:40;20.26;61.75
64874;HTU21D;51367;45.204;38.576;2023-09-18T06:00:07;20.35;61.50
64874;HTU21D;51367;45.204;38.576;2023-09-18T06:02:39;20.48;61.28
64874;HTU21D;51367;45.204;38.576;2023-09-18T06:05:06;20.61;61.79
64874;HTU21D;51367;45.204;38.576;2023-09-18T06:07:32;20.79;61.98
64874;HTU21D;51367;45.204;38.576;2023-09-18T06:09:58;21.04;62.05
64874;HTU21D;51367;45.204;38.576;2023-09-18T06:12:24;21.33;61.87
64874;HTU21D;51367;45.204;38.576;2023-09-18T06:14:51;21.68;61.25
64874;HTU21D;51367;45.204;38.576;2023-09-18T06:17:17;21.96;60.44
64874;HTU21D;51367;45.204;38.576;2023-09-18T06:19:44;22.19;59.27
64874;HTU21D;51367;45.204;38.576;2023-09-18T06:22:14;22.34;58.69
64874;HTU21D;51367;45.204;38.576;2023-09-18T06:24:40;22.49;58.31
64874;HTU21D;51367;45.204;38.576;2023-09-18T06:27:06;22.61;57.65
64874;HTU21D;51367;45.204;38.576;2023-09-18T06:29:33;22.72;57.36
64874;HTU21D;51367;45.204;38.576;2023-09-18T06:32:00;22.81;56.81
64874;HTU21D;51367;45.204;38.576;2023-09-18T06:34:26;22.95;56.57
64874;HTU21D;51367;45.204;38.576;2023-09-18T06:36:54;23.05;56.44
64874;HTU21D;51367;45.204;38.576;2023-09-18T06:39:20;23.11;56.31
64874;HTU21D;51367;45.204;38.576;2023-09-18T06:41:48;23.18;56.32
64874;HTU21D;51367;45.204;38.576;2023-09-18T06:44:14;23.28;56.45
64874;HTU21D;51367;45.204;38.576;2023-09-18T06:46:39;23.34;56.39
64874;HTU21D;51367;45.204;38.576;2023-09-18T06:49:06;23.32;56.27
64874;HTU21D;51367;45.204;38.576;2023-09-18T06:51:32;23.40;55.90
64874;HTU21D;51367;45.204;38.576;2023-09-18T06:53:58;23.44;55.35
64874;HTU21D;51367;45.204;38.576;2023-09-18T06:56:24;23.46;55.30
64874;HTU21D;51367;45.204;38.576;2023-09-18T06:58:51;23.50;54.66
64874;HTU21D;51367;45.204;38.576;2023-09-18T07:01:20;23.49;54.62
64874;HTU21D;51367;45.204;38.576;2023-09-18T07:03:47;23.53;54.56
64874;HTU21D;51367;45.204;38.576;2023-09-18T07:06:16;23.64;54.84
64874;HTU21D;51367;45.204;38.576;2023-09-18T07:08:46;23.85;55.01
64874;HTU21D;51367;45.204;38.576;2023-09-18T07:11:12;24.01;54.52
64874;HTU21D;51367;45.204;38.576;2023-09-18T07:13:38;24.08;54.65
64874;HTU21D;51367;45.204;38.576;2023-09-18T07:16:06;24.24;54.46
64874;HTU21D;51367;45.204;38.576;2023-09-18T07:18:32;24.39;54.49
64874;HTU21D;51367;45.204;38.576;2023-09-18T07:20:58;24.51;53.67
64874;HTU21D;51367;45.204;38.576;2023-09-18T07:23:24;24.56;53.46
64874;HTU21D;51367;45.204;38.576;2023-09-18T07:25:50;24.66;53.33
64874;HTU21D;51367;45.204;38.576;2023-09-18T07:28:16;24.80;53.02
64874;HTU21D;51367;45.204;38.576;2023-09-18T07:30:44;24.92;51.75
64874;HTU21D;51367;45.204;38.576;2023-09-18T07:33:10;24.95;51.29
64874;HTU21D;51367;45.204;38.576;2023-09-18T07:35:37;24.90;50.98
64874;HTU21D;51367;45.204;38.576;2023-09-18T07:38:03;24.82;50.98
64874;HTU21D;51367;45.204;38.576;2023-09-18T07:40:29;24.78;50.78
64874;HTU21D;51367;45.204;38.576;2023-09-18T07:42:55;24.70;50.72
64874;HTU21D;51367;45.204;38.576;2023-09-18T07:45:23;24.61;50.64
64874;HTU21D;51367;45.204;38.576;2023-09-18T07:47:49;24.56;50.16
64874;HTU21D;51367;45.204;38.576;2023-09-18T07:50:15;24.55;50.43
64874;HTU21D;51367;45.204;38.576;2023-09-18T07:52:41;24.57;50.30
64874;HTU21D;51367;45.204;38.576;2023-09-18T07:55:07;24.68;50.19
64874;HTU21D;51367;45.204;38.576;2023-09-18T07:57:34;24.73;49.60
64874;HTU21D;51367;45.204;38.576;2023-09-18T08:00:00;24.69;49.20
64874;HTU21D;51367;45.204;38.576;2023-09-18T08:02:39;24.65;48.83
64874;HTU21D;51367;45.204;38.576;2023-09-18T08:05:05;24.63;48.89
64874;HTU21D;51367;45.204;38.576;2023-09-18T08:07:31;24.57;48.54
64874;HTU21D;51367;45.204;38.576;2023-09-18T08:09:57;24.50;48.62
64874;HTU21D;51367;45.204;38.576;2023-09-18T08:12:23;24.53;48.70
64874;HTU21D;51367;45.204;38.576;2023-09-18T08:14:49;24.51;48.70
64874;HTU21D;51367;45.204;38.576;2023-09-18T08:17:16;24.58;48.30
64874;HTU21D;51367;45.204;38.576;2023-09-18T08:19:43;24.59;48.31
64874;HTU21D;51367;45.204;38.576;2023-09-18T08:22:10;24.64;48.18
64874;HTU21D;51367;45.204;38.576;2023-09-18T08:24:40;24.76;47.92
64874;HTU21D;51367;45.204;38.576;2023-09-18T08:27:07;24.84;47.25
64874;HTU21D;51367;45.204;38.576;2023-09-18T08:29:33;24.88;47.05
64874;HTU21D;51367;45.204;38.576;2023-09-18T08:31:59;24.94;46.96
64874;HTU21D;51367;45.204;38.576;2023-09-18T08:34:25;24.94;46.64
64874;HTU21D;51367;45.204;38.576;2023-09-18T08:36:51;24.85;46.31
64874;HTU21D;51367;45.204;38.576;2023-09-18T08:39:17;24.72;46.72
64874;HTU21D;51367;45.204;38.576;2023-09-18T08:41:43;24.64;46.51
64874;HTU21D;51367;45.204;38.576;2023-09-18T08:44:11;24.58;46.81
64874;HTU21D;51367;45.204;38.576;2023-09-18T08:46:38;24.58;47.15
64874;HTU21D;51367;45.204;38.576;2023-09-18T08:49:04;24.61;46.64
64874;HTU21D;51367;45.204;38.576;2023-09-18T08:51:32;24.61;46.51
64874;HTU21D;51367;45.204;38.576;2023-09-18T08:53:58;24.61;46.57
64874;HTU21D;51367;45.204;38.576;2023-09-18T08:56:25;24.63;46.38
64874;HTU21D;51367;45.204;38.576;2023-09-18T08:58:53;24.65;46.36
64874;HTU21D;51367;45.204;38.576;2023-09-18T09:01:19;24.62;45.86
64874;HTU21D;51367;45.204;38.576;2023-09-18T09:03:46;24.59;45.83
64874;HTU21D;51367;45.204;38.576;2023-09-18T09:06:13;24.60;45.83
64874;HTU21D;51367;45.204;38.576;2023-09-18T09:08:39;24.62;45.89
64874;HTU21D;51367;45.204;38.576;2023-09-18T09:11:05;24.68;45.75
64874;HTU21D;51367;45.204;38.576;2023-09-18T09:13:32;24.75;45.48
64874;HTU21D;51367;45.204;38.576;2023-09-18T09:15:58;24.79;45.40
64874;HTU21D;51367;45.204;38.576;2023-09-18T09:18:28;24.85;45.10
64874;HTU21D;51367;45.204;38.576;2023-09-18T09:21:02;24.85;44.43
64874;HTU21D;51367;45.204;38.576;2023-09-18T09:23:45;24.82;44.67
64874;HTU21D;51367;45.204;38.576;2023-09-18T09:26:15;24.83;44.70
64874;HTU21D;51367;45.204;38.576;2023-09-18T09:28:43;24.85;44.73
64874;HTU21D;51367;45.204;38.576;2023-09-18T09:31:09;24.86;44.80
64874;HTU21D;51367;45.204;38.576;2023-09-18T09:33:50;24.87;44.56
64874;HTU21D;51367;45.204;38.576;2023-09-18T09:36:22;24.91;44.80
64874;HTU21D;51367;45.204;38.576;2023-09-18T09:38:49;25.00;44.74
64874;HTU21D;51367;45.204;38.576;2023-09-18T09:41:20;25.04;44.45
64874;HTU21D;51367;45.204;38.576;2023-09-18T09:43:47;25.06;44.54
64874;HTU21D;51367;45.204;38.576;2023-09-18T09:46:17;25.12;44.59
64874;HTU21D;51367;45.204;38.576;2023-09-18T09:49:04;25.16;44.08
64874;HTU21D;51367;45.204;38.576;2023-09-18T09:51:31;25.15;44.13
64874;HTU21D;51367;45.204;38.576;2023-09-18T09:53:57;25.12;44.33
64874;HTU21D;51367;45.204;38.576;2023-09-18T09:56:48;25.16;42.76
64874;HTU21D;51367;45.204;38.576;2023-09-18T09:59:17;25.19;44.00
64874;HTU21D;51367;45.204;38.576;2023-09-18T10:01:46;25.28;44.13
64874;HTU21D;51367;45.204;38.576;2023-09-18T10:04:16;25.31;44.17
64874;HTU21D;51367;45.204;38.576;2023-09-18T10:06:56;25.38;44.21
64874;HTU21D;51367;45.204;38.576;2023-09-18T10:09:24;25.47;44.04
64874;HTU21D;51367;45.204;38.576;2023-09-18T10:11:54;25.51;43.24
64874;HTU21D;51367;45.204;38.576;2023-09-18T10:14:32;25.49;42.93
64874;HTU21D;51367;45.204;38.576;2023-09-18T10:17:10;25.48;42.94
64874;HTU21D;51367;45.204;38.576;2023-09-18T10:19:49;25.49;43.03
64874;HTU21D;51367;45.204;38.576;2023-09-18T10:22:45;25.50;41.85
64874;HTU21D;51367;45.204;38.576;2023-09-18T10:25:18;25.50;42.84
64874;HTU21D;51367;45.204;38.576;2023-09-18T10:27:47;25.52;42.72
64874;HTU21D;51367;45.204;38.576;2023-09-18T10:30:20;25.48;42.90
64874;HTU21D;51367;45.204;38.576;2023-09-18T10:32:50;25.47;42.48
64874;HTU21D;51367;45.204;38.576;2023-09-18T10:35:16;25.49;42.66
64874;HTU21D;51367;45.204;38.576;2023-09-18T10:37:43;25.53;42.74
64874;HTU21D;51367;45.204;38.576;2023-09-18T10:40:11;25.57;42.40
64874;HTU21D;51367;45.204;38.576;2023-09-18T10:42:41;25.59;42.42
64874;HTU21D;51367;45.204;38.576;2023-09-18T10:45:09;25.58;42.47
64874;HTU21D;51367;45.204;38.576;2023-09-18T10:47:38;25.61;42.26
64874;HTU21D;51367;45.204;38.576;2023-09-18T10:50:06;25.62;42.06
64874;HTU21D;51367;45.204;38.576;2023-09-18T10:52:35;25.66;42.07
64874;HTU21D;51367;45.204;38.576;2023-09-18T10:55:01;25.72;42.09
64874;HTU21D;51367;45.204;38.576;2023-09-18T10:57:34;25.79;41.84
64874;HTU21D;51367;45.204;38.576;2023-09-18T11:00:01;25.83;41.64
64874;HTU21D;51367;45.204;38.576;2023-09-18T11:02:42;25.84;41.59
64874;HTU21D;51367;45.204;38.576;2023-09-18T11:05:08;25.83;41.19
64874;HTU21D;51367;45.204;38.576;2023-09-18T11:07:34;25.81;41.41
64874;HTU21D;51367;45.204;38.576;2023-09-18T11:10:25;25.87;41.52
64874;HTU21D;51367;45.204;38.576;2023-09-18T11:12:52;25.91;40.97
64874;HTU21D;51367;45.204;38.576;2023-09-18T11:15:31;25.88;41.00
64874;HTU21D;51367;45.204;38.576;2023-09-18T11:18:02;25.86;41.36
64874;HTU21D;51367;45.204;38.576;2023-09-18T11:20:30;25.89;40.26
64874;HTU21D;51367;45.204;38.576;2023-09-18T11:22:58;25.93;41.52
64874;HTU21D;51367;45.204;38.576;2023-09-18T11:25:35;25.97;40.07
64874;HTU21D;51367;45.204;38.576;2023-09-18T11:28:06;25.95;41.29
64874;HTU21D;51367;45.204;38.576;2023-09-18T11:30:37;25.95;41.39
64874;HTU21D;51367;45.204;38.576;2023-09-18T11:33:05;25.97;41.16
64874;HTU21D;51367;45.204;38.576;2023-09-18T11:35:32;26.02;41.30
64874;HTU21D;51367;45.204;38.576;2023-09-18T11:38:09;26.09;40.98
64874;HTU21D;51367;45.204;38.576;2023-09-18T11:40:38;26.16;41.29
64874;HTU21D;51367;45.204;38.576;2023-09-18T11:43:25;26.26;40.96
64874;HTU21D;51367;45.204;38.576;2023-09-18T11:45:52;26.32;40.63
64874;HTU21D;51367;45.204;38.576;2023-09-18T11:48:20;26.31;40.54
64874;HTU21D;51367;45.204;38.576;2023-09-18T11:50:47;26.27;40.53
64874;HTU21D;51367;45.204;38.576;2023-09-18T11:53:17;26.25;40.65
64874;HTU21D;51367;45.204;38.576;2023-09-18T11:55:46;26.28;40.64
64874;HTU21D;51367;45.204;38.576;2023-09-18T11:58:13;26.27;40.13
64874;HTU21D;51367;45.204;38.576;2023-09-18T12:00:39;26.22;40.03
64874;HTU21D;51367;45.204;38.576;2023-09-18T12:03:19;26.17;39.59
64874;HTU21D;51367;45.204;38.576;2023-09-18T12:05:59;26.13;39.27
64874;HTU21D;51367;45.204;38.576;2023-09-18T12:08:25;26.16;39.17
64874;HTU21D;51367;45.204;38.576;2023-09-18T12:10:56;26.18;39.31
64874;HTU21D;51367;45.204;38.576;2023-09-18T12:13:24;26.18;39.25
64874;HTU21D;51367;45.204;38.576;2023-09-18T12:15:56;26.17;38.77
64874;HTU21D;51367;45.204;38.576;2023-09-18T12:18:22;26.18;39.39
64874;HTU21D;51367;45.204;38.576;2023-09-18T12:20:50;26.18;39.58
64874;HTU21D;51367;45.204;38.576;2023-09-18T12:23:17;26.25;39.29
64874;HTU21D;51367;45.204;38.576;2023-09-18T12:25:47;26.27;39.24
64874;HTU21D;51367;45.204;38.576;2023-09-18T12:28:14;26.33;39.32
64874;HTU21D;51367;45.204;38.576;2023-09-18T12:30:42;26.37;39.26
64874;HTU21D;51367;45.204;38.576;2023-09-18T12:33:08;26.33;38.94
64874;HTU21D;51367;45.204;38.576;2023-09-18T12:35:34;26.31;39.14
64874;HTU21D;51367;45.204;38.576;2023-09-18T12:38:00;26.33;38.92
64874;HTU21D;51367;45.204;38.576;2023-09-18T12:40:28;26.31;38.73
64874;HTU21D;51367;45.204;38.576;2023-09-18T12:42:55;26.27;38.75
64874;HTU21D;51367;45.204;38.576;2023-09-18T12:45:26;26.28;38.27
64874;HTU21D;51367;45.204;38.576;2023-09-18T12:47:55;26.28;38.89
64874;HTU21D;51367;45.204;38.576;2023-09-18T12:50:22;26.32;39.04
64874;HTU21D;51367;45.204;38.576;2023-09-18T12:52:48;26.36;38.89
64874;HTU21D;51367;45.204;38.576;2023-09-18T12:55:25;26.35;38.59
64874;HTU21D;51367;45.204;38.576;2023-09-18T12:57:53;26.33;38.62
64874;HTU21D;51367;45.204;38.576;2023-09-18T13:00:20;26.26;38.57
64874;HTU21D;51367;45.204;38.576;2023-09-18T13:02:52;26.25;37.82
64874;HTU21D;51367;45.204;38.576;2023-09-18T13:05:24;26.18;38.42
64874;HTU21D;51367;45.204;38.576;2023-09-18T13:08:02;26.15;38.40
64874;HTU21D;51367;45.204;38.576;2023-09-18T13:10:29;26.11;38.59
64874;HTU21D;51367;45.204;38.576;2023-09-18T13:13:05;26.08;38.43
64874;HTU21D;51367;45.204;38.576;2023-09-18T13:15:32;26.06;38.58
64874;HTU21D;51367;45.204;38.576;2023-09-18T13:18:08;26.03;38.49
64874;HTU21D;51367;45.204;38.576;2023-09-18T13:20:35;26.05;38.43
64874;HTU21D;51367;45.204;38.576;2023-09-18T13:23:01;26.05;38.41
64874;HTU21D;51367;45.204;38.576;2023-09-18T13:25:31;26.04;38.30
64874;HTU21D;51367;45.204;38.576;2023-09-18T13:28:01;26.01;38.40
64874;HTU21D;51367;45.204;38.576;2023-09-18T13:30:27;25.99;38.43
64874;HTU21D;51367;45.204;38.576;2023-09-18T13:33:02;25.98;38.43
64874;HTU21D;51367;45.204;38.576;2023-09-18T13:35:30;25.96;38.35
64874;HTU21D;51367;45.204;38.576;2023-09-18T13:37:55;25.93;38.32
64874;HTU21D;51367;45.204;38.576;2023-09-18T13:40:21;25.90;38.35
64874;HTU21D;51367;45.204;38.576;2023-09-18T13:42:47;25.87;38.53
64874;HTU21D;51367;45.204;38.576;2023-09-18T13:45:14;25.83;38.59
64874;HTU21D;51367;45.204;38.576;2023-09-18T13:47:43;25.81;38.62
64874;HTU21D;51367;45.204;38.576;2023-09-18T13:50:09;25.77;38.48
64874;HTU21D;51367;45.204;38.576;2023-09-18T13:52:36;25.71;38.78
64874;HTU21D;51367;45.204;38.576;2023-09-18T13:55:03;25.68;38.94
64874;HTU21D;51367;45.204;38.576;2023-09-18T13:57:34;25.69;39.09
64874;HTU21D;51367;45.204;38.576;2023-09-18T14:00:01;25.71;39.01
64874;HTU21D;51367;45.204;38.576;2023-09-18T14:02:41;25.66;38.88
64874;HTU21D;51367;45.204;38.576;2023-09-18T14:05:08;25.63;38.93
64874;HTU21D;51367;45.204;38.576;2023-09-18T14:07:35;25.58;38.91
64874;HTU21D;51367;45.204;38.576;2023-09-18T14:10:08;25.52;39.01
64874;HTU21D;51367;45.204;38.576;2023-09-18T14:12:39;25.46;38.98
64874;HTU21D;51367;45.204;38.576;2023-09-18T14:15:09;25.39;39.16
64874;HTU21D;51367;45.204;38.576;2023-09-18T14:17:35;25.35;39.32
64874;HTU21D;51367;45.204;38.576;2023-09-18T14:20:03;25.29;39.26
64874;HTU21D;51367;45.204;38.576;2023-09-18T14:22:35;25.23;39.23
64874;HTU21D;51367;45.204;38.576;2023-09-18T14:25:02;25.18;39.42
64874;HTU21D;51367;45.204;38.576;2023-09-18T14:27:32;25.16;39.44
64874;HTU21D;51367;45.204;38.576;2023-09-18T14:29:58;25.10;39.56
64874;HTU21D;51367;45.204;38.576;2023-09-18T14:32:24;25.06;39.49
64874;HTU21D;51367;45.204;38.576;2023-09-18T14:34:50;25.02;39.59
64874;HTU21D;51367;45.204;38.576;2023-09-18T14:37:16;24.99;39.55
64874;HTU21D;51367;45.204;38.576;2023-09-18T14:39:42;24.93;39.56
64874;HTU21D;51367;45.204;38.576;2023-09-18T14:42:08;24.87;39.58
64874;HTU21D;51367;45.204;38.576;2023-09-18T14:44:35;24.80;39.72
64874;HTU21D;51367;45.204;38.576;2023-09-18T14:47:05;24.77;39.78
64874;HTU21D;51367;45.204;38.576;2023-09-18T14:49:31;24.70;39.83
64874;HTU21D;51367;45.204;38.576;2023-09-18T14:51:58;24.65;40.01
64874;HTU21D;51367;45.204;38.576;2023-09-18T14:54:24;24.58;40.15
64874;HTU21D;51367;45.204;38.576;2023-09-18T14:56:50;24.51;40.26
64874;HTU21D;51367;45.204;38.576;2023-09-18T14:59:16;24.44;40.33
64874;HTU21D;51367;45.204;38.576;2023-09-18T15:01:42;24.38;40.39
64874;HTU21D;51367;45.204;38.576;2023-09-18T15:04:09;24.30;40.49
64874;HTU21D;51367;45.204;38.576;2023-09-18T15:06:35;24.24;40.55
64874;HTU21D;51367;45.204;38.576;2023-09-18T15:09:02;24.16;40.68
64874;HTU21D;51367;45.204;38.576;2023-09-18T15:11:28;24.09;40.78